Time;durP1;ratioP1;P1;durP2;ratioP2;P2;SDS_P1;SDS_P2;PMS_P1;PMS_P2;Temp;Humidity;BMP_temperature;BMP_pressure;BME280_temperature;BME280_humidity;BME280_pressure;Samples;Min_cycle;Max_cycle;Signal;HPM_P1;HPM_P2
2021/03/15 00:02:20;;;;;;;3.33;1.85;;;4.60;99.90;;;;;;5072374;28;20123;-82
2021/03/15 00:04:46;;;;;;;3.83;1.77;;;4.60;99.90;;;;;;5073095;28;20155;-82
2021/03/15 00:07:14;;;;;;;4.45;2.15;;;4.60;99.90;;;;;;5072676;28;20135;-82
2021/03/15 00:09:41;;;;;;;3.80;1.80;;;4.60;99.90;;;;;;5071760;28;20414;-82
2021/03/15 00:12:09;;;;;;;3.60;1.90;;;4.60;99.90;;;;;;5071408;28;20517;-81
2021/03/15 00:14:36;;;;;;;4.07;1.50;;;4.70;99.90;;;;;;5071878;28;20128;-79
2021/03/15 00:17:03;;;;;;;4.55;1.90;;;4.70;99.90;;;;;;5071824;28;20147;-80
2021/03/15 00:19:29;;;;;;;3.67;2.00;;;4.70;99.90;;;;;;5071773;28;20056;-83
2021/03/15 00:21:56;;;;;;;4.05;1.80;;;4.70;99.90;;;;;;5071717;28;20045;-84
2021/03/15 00:24:23;;;;;;;4.03;1.80;;;4.70;99.90;;;;;;5071339;28;20151;-83
2021/03/15 00:26:49;;;;;;;4.90;2.08;;;4.70;99.90;;;;;;5072237;28;20052;-83
2021/03/15 00:29:18;;;;;;;5.35;1.80;;;4.70;99.90;;;;;;5071190;28;20044;-83
2021/03/15 00:31:45;;;;;;;4.80;2.00;;;4.70;99.90;;;;;;5072987;28;20072;-83
2021/03/15 00:34:12;;;;;;;5.43;2.03;;;4.70;99.90;;;;;;5070679;28;20132;-83
2021/03/15 00:36:38;;;;;;;3.85;1.90;;;4.70;99.90;;;;;;5071675;28;20138;-82
2021/03/15 00:39:05;;;;;;;4.28;2.38;;;4.70;99.90;;;;;;5071855;28;20146;-83
2021/03/15 00:41:32;;;;;;;5.60;2.28;;;4.70;99.90;;;;;;5071873;28;20048;-83
2021/03/15 00:43:59;;;;;;;3.80;1.55;;;4.70;99.90;;;;;;5072315;28;20139;-83
2021/03/15 00:46:26;;;;;;;4.10;1.95;;;4.60;99.90;;;;;;5072173;28;20052;-83
2021/03/15 00:48:53;;;;;;;4.47;2.00;;;4.50;99.90;;;;;;5072116;28;20083;-83
2021/03/15 00:51:19;;;;;;;4.97;2.38;;;4.60;99.90;;;;;;5073956;28;20118;-83
2021/03/15 00:53:46;;;;;;;5.45;2.00;;;4.50;99.90;;;;;;5071647;28;20447;-79
2021/03/15 00:56:13;;;;;;;5.45;2.15;;;4.60;99.90;;;;;;5070148;28;20059;-82
2021/03/15 00:58:39;;;;;;;3.33;1.80;;;4.60;99.90;;;;;;5070353;28;20045;-83
2021/03/15 01:01:06;;;;;;;4.55;1.95;;;4.60;99.90;;;;;;5070965;28;20143;-83
2021/03/15 01:03:33;;;;;;;5.07;2.00;;;4.60;99.90;;;;;;5071117;28;20056;-83
2021/03/15 01:06:01;;;;;;;5.50;1.90;;;4.70;99.90;;;;;;5073229;28;20056;-82
2021/03/15 01:08:27;;;;;;;4.82;1.85;;;4.60;99.90;;;;;;5081297;28;20048;-82
2021/03/15 01:10:54;;;;;;;4.60;1.80;;;4.60;99.90;;;;;;5113425;28;20051;-82
2021/03/15 01:13:21;;;;;;;4.25;1.70;;;4.60;99.90;;;;;;5081846;28;20514;-81
2021/03/15 01:15:47;;;;;;;3.47;1.50;;;4.60;99.90;;;;;;5081217;28;20112;-81
2021/03/15 01:18:14;;;;;;;3.58;1.60;;;4.60;99.90;;;;;;5087131;28;20048;-81
2021/03/15 01:20:42;;;;;;;3.35;1.60;;;4.60;99.90;;;;;;5070626;28;20547;-81
2021/03/15 01:23:08;;;;;;;4.43;1.70;;;4.50;99.90;;;;;;5070815;28;20063;-83
2021/03/15 01:25:37;;;;;;;4.07;1.70;;;4.60;99.90;;;;;;5070687;28;20044;-82
2021/03/15 01:28:07;;;;;;;3.47;1.67;;;4.60;99.90;;;;;;5071152;28;20080;-82
2021/03/15 01:30:35;;;;;;;3.78;1.70;;;4.60;99.90;;;;;;5071383;28;20127;-83
2021/03/15 01:33:03;;;;;;;3.58;1.90;;;4.50;99.90;;;;;;5072122;28;20127;-85
2021/03/15 01:35:30;;;;;;;4.93;1.73;;;4.60;99.90;;;;;;5072588;28;20324;-84
2021/03/15 01:38:00;;;;;;;4.32;1.60;;;4.60;99.90;;;;;;5071177;28;20084;-82
2021/03/15 01:40:28;;;;;;;3.33;1.70;;;4.50;99.90;;;;;;5071868;28;20059;-82
2021/03/15 01:42:56;;;;;;;3.90;1.60;;;4.50;99.90;;;;;;5071180;28;20102;-82
2021/03/15 01:45:24;;;;;;;3.40;1.63;;;4.60;99.90;;;;;;5070626;28;20574;-83
2021/03/15 01:47:52;;;;;;;5.53;1.90;;;4.50;99.90;;;;;;5102611;28;20199;-81
2021/03/15 01:50:20;;;;;;;4.07;1.92;;;4.50;99.90;;;;;;5070820;28;20127;-81
2021/03/15 01:52:49;;;;;;;4.88;1.73;;;4.60;99.90;;;;;;5072739;28;20139;-81
2021/03/15 01:55:17;;;;;;;3.53;1.65;;;4.50;99.90;;;;;;5072324;28;20155;-80
2021/03/15 01:57:46;;;;;;;3.53;1.60;;;4.50;99.90;;;;;;5073720;28;20052;-81
2021/03/15 02:00:15;;;;;;;5.32;2.17;;;4.60;99.90;;;;;;5073538;28;20502;-82
2021/03/15 02:02:49;;;;;;;3.88;1.85;;;4.50;99.90;;;;;;5073211;28;20059;-82
2021/03/15 02:05:16;;;;;;;3.85;1.67;;;4.50;99.90;;;;;;5073221;28;20131;-81
2021/03/15 02:07:43;;;;;;;4.68;1.85;;;4.50;99.90;;;;;;5073856;28;20473;-81
2021/03/15 02:10:11;;;;;;;4.22;1.55;;;4.50;99.90;;;;;;5073407;28;20072;-82
2021/03/15 02:13:17;;;;;;;4.07;1.60;;;4.50;99.90;;;;;;5073319;28;20135;-81
2021/03/15 02:15:59;;;;;;;4.45;1.70;;;4.50;99.90;;;;;;5072705;28;20045;-81
2021/03/15 02:18:37;;;;;;;4.57;1.90;;;4.50;99.90;;;;;;5073323;28;20139;-81
2021/03/15 02:21:45;;;;;;;4.38;1.58;;;4.50;99.90;;;;;;5073271;28;20084;-81
2021/03/15 02:24:20;;;;;;;5.05;1.85;;;4.50;99.90;;;;;;5072902;28;20063;-81
2021/03/15 02:27:48;;;;;;;3.70;1.55;;;4.50;99.90;;;;;;5073071;28;20148;-81
2021/03/15 02:30:43;;;;;;;2.90;1.55;;;4.50;99.90;;;;;;5049958;28;20056;-81
2021/03/15 02:33:47;;;;;;;5.25;1.75;;;4.40;99.90;;;;;;5071541;28;20057;-82
2021/03/15 02:36:16;;;;;;;4.50;1.60;;;4.40;99.90;;;;;;5077099;28;20143;-81
2021/03/15 02:38:47;;;;;;;4.03;1.75;;;4.40;99.90;;;;;;5076800;28;20056;-81
2021/03/15 02:41:18;;;;;;;4.20;1.80;;;4.50;99.90;;;;;;5077148;28;20512;-82
2021/03/15 02:43:48;;;;;;;5.00;1.63;;;4.50;99.90;;;;;;5076752;28;20131;-81
2021/03/15 02:46:18;;;;;;;3.83;1.60;;;4.50;99.90;;;;;;5077211;28;20132;-80
2021/03/15 02:48:47;;;;;;;5.93;1.95;;;4.50;99.90;;;;;;5076990;28;20463;-82
2021/03/15 02:51:19;;;;;;;4.22;1.40;;;4.50;99.90;;;;;;5077097;28;20087;-82
2021/03/15 02:53:47;;;;;;;5.00;1.65;;;4.50;99.90;;;;;;5076804;28;20471;-81
2021/03/15 02:56:19;;;;;;;3.40;1.48;;;4.50;99.90;;;;;;5076786;28;20135;-81
2021/03/15 02:58:47;;;;;;;3.20;1.40;;;4.50;99.90;;;;;;5076925;28;20049;-81
2021/03/15 03:01:18;;;;;;;3.75;1.50;;;4.50;99.90;;;;;;5076244;28;20413;-82
2021/03/15 03:03:47;;;;;;;4.30;1.60;;;4.50;99.90;;;;;;5076439;28;20140;-82
2021/03/15 03:06:16;;;;;;;5.18;1.80;;;4.50;99.90;;;;;;5076708;28;20139;-82
2021/03/15 03:08:44;;;;;;;5.38;1.63;;;4.60;99.90;;;;;;5076633;28;20574;-82
2021/03/15 03:11:12;;;;;;;5.05;1.63;;;4.50;99.90;;;;;;5076154;28;20048;-81
2021/03/15 03:13:42;;;;;;;4.50;1.60;;;4.50;99.90;;;;;;5076086;28;20048;-81
2021/03/15 03:16:09;;;;;;;5.25;1.70;;;4.50;99.90;;;;;;5076184;28;20068;-81
2021/03/15 03:18:38;;;;;;;3.65;1.40;;;4.60;99.90;;;;;;5076366;28;20422;-79
2021/03/15 03:21:07;;;;;;;5.28;1.63;;;4.60;99.90;;;;;;5076156;28;20139;-82
2021/03/15 03:23:38;;;;;;;4.38;1.60;;;4.60;99.90;;;;;;5091894;28;20579;-80
2021/03/15 03:26:07;;;;;;;4.60;1.83;;;4.60;99.90;;;;;;5054879;28;20041;-80
2021/03/15 03:28:35;;;;;;;3.83;1.63;;;4.60;99.90;;;;;;5056123;28;20132;-80
2021/03/15 03:31:06;;;;;;;6.85;2.15;;;4.70;99.90;;;;;;5068655;28;20142;-81
2021/03/15 03:33:34;;;;;;;4.97;1.70;;;4.60;99.90;;;;;;5075681;28;20127;-81
2021/03/15 03:36:00;;;;;;;3.70;1.60;;;4.70;99.90;;;;;;5075938;28;20079;-81
2021/03/15 03:38:27;;;;;;;5.35;1.90;;;4.70;99.90;;;;;;5075648;28;20139;-82
2021/03/15 03:40:57;;;;;;;3.95;1.70;;;4.80;99.90;;;;;;5075748;28;20135;-81
2021/03/15 03:43:23;;;;;;;4.82;1.75;;;4.70;99.90;;;;;;5075042;28;20123;-81
2021/03/15 03:45:50;;;;;;;4.47;1.70;;;4.60;99.90;;;;;;5075442;28;20143;-81
2021/03/15 03:48:16;;;;;;;4.93;1.52;;;4.60;99.90;;;;;;5075621;28;20118;-81
2021/03/15 03:50:43;;;;;;;4.30;1.60;;;4.50;99.90;;;;;;5075419;28;20402;-80
2021/03/15 03:53:14;;;;;;;6.07;1.55;;;4.70;99.90;;;;;;5075435;28;20139;-80
2021/03/15 03:55:47;;;;;;;4.35;1.42;;;4.60;99.90;;;;;;5075348;28;20140;-81
2021/03/15 03:58:18;;;;;;;4.47;1.50;;;4.60;99.90;;;;;;5075457;28;20410;-82
2021/03/15 04:00:47;;;;;;;3.72;1.40;;;4.60;99.90;;;;;;5075186;28;20048;-82
2021/03/15 04:03:17;;;;;;;6.22;1.77;;;4.60;99.90;;;;;;5073680;28;20506;-81
2021/03/15 04:05:50;;;;;;;4.95;1.52;;;4.60;99.90;;;;;;5073710;28;20055;-81
2021/03/15 04:08:24;;;;;;;4.47;1.42;;;4.50;99.90;;;;;;5074704;28;20207;-82
2021/03/15 04:10:52;;;;;;;5.22;1.60;;;4.60;99.90;;;;;;5082031;28;20056;-81
2021/03/15 04:13:24;;;;;;;3.63;1.70;;;4.60;99.90;;;;;;5082531;28;20052;-82
2021/03/15 04:15:51;;;;;;;6.20;2.05;;;4.60;99.90;;;;;;5084748;28;20390;-81
2021/03/15 04:18:22;;;;;;;4.55;1.30;;;4.60;99.90;;;;;;5083620;28;20084;-82
2021/03/15 04:20:55;;;;;;;5.25;1.67;;;4.60;99.90;;;;;;5083190;28;20084;-80
2021/03/15 04:23:28;;;;;;;6.25;1.92;;;4.70;99.90;;;;;;5075967;28;20088;-81
2021/03/15 04:25:55;;;;;;;6.00;1.70;;;4.70;99.90;;;;;;5072887;28;20518;-81
2021/03/15 04:28:24;;;;;;;4.25;1.50;;;4.70;99.90;;;;;;5072997;28;20102;-81
2021/03/15 04:30:52;;;;;;;7.22;1.60;;;4.70;99.90;;;;;;5071177;28;20143;-81
2021/03/15 04:33:19;;;;;;;4.80;1.52;;;4.70;99.90;;;;;;5072675;28;20135;-82
2021/03/15 04:35:46;;;;;;;7.15;2.13;;;4.70;99.90;;;;;;5072307;28;20391;-81
2021/03/15 04:38:14;;;;;;;4.22;1.60;;;4.80;99.90;;;;;;5072148;28;20082;-81
2021/03/15 04:40:48;;;;;;;4.65;1.63;;;4.80;99.90;;;;;;5087945;28;20040;-82
2021/03/15 04:43:15;;;;;;;6.75;1.80;;;4.80;99.90;;;;;;5072328;28;20052;-86
2021/03/15 04:45:44;;;;;;;6.22;2.08;;;4.90;99.90;;;;;;5071724;28;20490;-85
2021/03/15 04:48:15;;;;;;;3.42;1.50;;;4.90;99.90;;;;;;5072078;28;20052;-86
2021/03/15 04:50:44;;;;;;;3.67;1.65;;;4.90;99.90;;;;;;5071179;28;20052;-85
2021/03/15 04:53:14;;;;;;;4.28;1.60;;;4.80;99.90;;;;;;5072972;28;20151;-85
2021/03/15 04:55:41;;;;;;;4.93;1.73;;;4.90;99.90;;;;;;5072690;28;20135;-86
2021/03/15 04:58:10;;;;;;;3.72;1.40;;;4.90;99.90;;;;;;5072103;28;20060;-82
2021/03/15 05:00:39;;;;;;;5.00;1.40;;;4.90;99.90;;;;;;5072341;28;20060;-83
2021/03/15 05:03:11;;;;;;;4.50;1.73;;;4.90;99.90;;;;;;5074356;28;20080;-82
2021/03/15 05:05:39;;;;;;;3.67;1.40;;;4.90;99.90;;;;;;5073791;28;20059;-81
2021/03/15 05:08:08;;;;;;;5.90;1.65;;;4.90;99.90;;;;;;5074440;28;20075;-82
2021/03/15 05:10:35;;;;;;;3.40;1.30;;;5.00;99.90;;;;;;5074248;28;20135;-79
2021/03/15 05:13:05;;;;;;;4.22;1.38;;;5.00;99.90;;;;;;5074669;28;20131;-83
2021/03/15 05:15:33;;;;;;;6.18;1.48;;;5.10;99.90;;;;;;5075068;28;20072;-87
2021/03/15 05:18:00;;;;;;;4.05;1.50;;;5.10;99.90;;;;;;5075198;28;20048;-82
2021/03/15 05:20:28;;;;;;;5.00;1.70;;;5.10;99.90;;;;;;5074272;28;20446;-82
2021/03/15 05:22:55;;;;;;;5.95;1.77;;;5.20;99.90;;;;;;5073115;28;20561;-80
2021/03/15 05:25:24;;;;;;;4.13;1.60;;;5.20;99.90;;;;;;5073946;28;20131;-83
2021/03/15 05:27:50;;;;;;;3.83;1.55;;;5.20;99.90;;;;;;5076341;28;20132;-84
2021/03/15 05:30:21;;;;;;;3.97;1.40;;;5.20;99.90;;;;;;5073807;28;20405;-84
2021/03/15 05:32:51;;;;;;;4.28;1.48;;;5.10;99.90;;;;;;5073946;28;20483;-84
2021/03/15 05:35:19;;;;;;;6.60;1.73;;;5.10;99.90;;;;;;5074118;28;20570;-84
2021/03/15 05:37:48;;;;;;;3.95;1.50;;;5.10;99.90;;;;;;5073756;28;20110;-84
2021/03/15 05:40:19;;;;;;;4.60;1.33;;;5.10;99.90;;;;;;5074106;28;20121;-84
2021/03/15 05:43:02;;;;;;;4.88;1.25;;;5.20;99.90;;;;;;5074911;28;20104;-84
2021/03/15 05:46:08;;;;;;;4.75;1.55;;;5.10;99.90;;;;;;5074396;28;20157;-84
2021/03/15 05:49:37;;;;;;;4.97;1.38;;;5.10;99.90;;;;;;5074019;28;20063;-84
2021/03/15 05:52:07;;;;;;;4.60;1.48;;;5.20;99.90;;;;;;5073943;28;20070;-83
2021/03/15 05:55:15;;;;;;;6.10;1.67;;;5.20;99.90;;;;;;5074644;28;20053;-83
2021/03/15 05:58:32;;;;;;;4.90;1.90;;;5.20;99.90;;;;;;5074054;28;20478;-84
2021/03/15 06:01:17;;;;;;;4.50;1.65;;;5.20;99.90;;;;;;5073824;28;20056;-83
2021/03/15 06:04:03;;;;;;;;;;;5.20;99.90;;;;;;5074530;28;20558;-84
2021/03/15 06:06:38;;;;;;;3.03;1.30;;;5.20;99.90;;;;;;5073757;28;20286;-83
2021/03/15 06:09:07;;;;;;;5.57;1.38;;;5.20;99.90;;;;;;5075515;28;20057;-83
2021/03/15 06:11:45;;;;;;;2.10;0.90;;;5.20;99.90;;;;;;5076754;28;20049;-82
2021/03/15 06:14:13;;;;;;;3.45;1.27;;;5.10;99.90;;;;;;5080999;28;20108;-84
2021/03/15 06:16:40;;;;;;;3.72;1.00;;;5.10;99.90;;;;;;5077798;28;20155;-84
2021/03/15 06:19:08;;;;;;;6.03;1.10;;;5.20;99.90;;;;;;5077928;28;20517;-83
2021/03/15 06:21:37;;;;;;;2.75;1.00;;;5.10;99.90;;;;;;5077556;28;20052;-83
2021/03/15 06:24:05;;;;;;;3.08;1.08;;;5.10;99.90;;;;;;5078105;28;20151;-83
2021/03/15 06:26:34;;;;;;;3.25;1.05;;;5.20;99.90;;;;;;5077578;28;20135;-84
2021/03/15 06:29:01;;;;;;;4.25;1.13;;;5.20;99.90;;;;;;5077401;28;20502;-83
2021/03/15 06:31:30;;;;;;;3.30;1.10;;;5.20;99.90;;;;;;5079202;28;20052;-83
2021/03/15 06:33:58;;;;;;;4.05;1.10;;;5.30;99.90;;;;;;5077114;28;20052;-83
2021/03/15 06:36:26;;;;;;;4.03;1.17;;;5.40;99.90;;;;;;5077231;28;20056;-83
2021/03/15 06:38:54;;;;;;;3.38;1.10;;;5.40;99.90;;;;;;5078186;28;20080;-84
2021/03/15 06:41:23;;;;;;;2.92;1.20;;;5.40;99.90;;;;;;5077060;28;20040;-83
2021/03/15 06:43:51;;;;;;;4.38;1.25;;;5.40;99.90;;;;;;5078096;28;20573;-82
2021/03/15 06:46:19;;;;;;;4.10;1.17;;;5.50;99.90;;;;;;5077532;28;20048;-83
2021/03/15 06:48:46;;;;;;;3.88;1.00;;;5.50;99.90;;;;;;5078532;28;20112;-83
2021/03/15 06:51:13;;;;;;;2.42;0.90;;;5.40;99.90;;;;;;5077071;28;20143;-83
2021/03/15 06:53:42;;;;;;;5.00;1.20;;;5.50;99.90;;;;;;5076732;28;20143;-83
2021/03/15 06:56:14;;;;;;;3.60;1.45;;;5.50;99.90;;;;;;5078840;28;20135;-83
2021/03/15 06:58:50;;;;;;;4.20;1.38;;;5.50;99.90;;;;;;5077939;28;20117;-85
2021/03/15 07:01:21;;;;;;;3.63;1.48;;;5.50;99.90;;;;;;5076880;28;20079;-84
2021/03/15 07:03:51;;;;;;;4.00;1.20;;;5.50;99.90;;;;;;5077343;28;20063;-84
2021/03/15 07:06:19;;;;;;;2.83;1.08;;;5.50;99.90;;;;;;5076086;28;20048;-85
2021/03/15 07:08:47;;;;;;;3.55;1.20;;;5.60;99.90;;;;;;5076602;28;20555;-84
2021/03/15 07:11:22;;;;;;;2.30;0.90;;;5.50;99.90;;;;;;5077422;28;20477;-87
2021/03/15 07:13:51;;;;;;;2.38;0.90;;;5.50;99.90;;;;;;5078491;28;20064;-84
2021/03/15 07:16:30;;;;;;;2.03;0.85;;;5.50;99.90;;;;;;5078834;28;20056;-85
2021/03/15 07:18:57;;;;;;;2.00;0.90;;;5.40;99.90;;;;;;5077239;28;20119;-84
2021/03/15 07:21:37;;;;;;;2.45;1.00;;;5.40;99.90;;;;;;5077657;28;20132;-84
2021/03/15 07:24:09;;;;;;;2.72;1.02;;;5.40;99.90;;;;;;5077492;28;20546;-86
2021/03/15 07:26:39;;;;;;;4.03;1.08;;;5.40;99.90;;;;;;5077133;28;20185;-85
2021/03/15 07:29:12;;;;;;;2.42;0.90;;;5.50;99.90;;;;;;5077238;28;20127;-84
2021/03/15 07:31:40;;;;;;;2.47;1.02;;;5.50;99.90;;;;;;5076848;28;20131;-84
2021/03/15 07:34:13;;;;;;;2.50;1.00;;;5.50;99.90;;;;;;5076895;28;20626;-84
2021/03/15 07:36:51;;;;;;;2.17;1.00;;;5.50;99.90;;;;;;5076899;28;20139;-84
2021/03/15 07:39:18;;;;;;;2.22;0.82;;;5.50;99.90;;;;;;5076671;28;20073;-83
2021/03/15 07:41:47;;;;;;;2.55;1.00;;;5.60;99.90;;;;;;5059472;28;20045;-83
2021/03/15 07:44:25;;;;;;;3.17;0.90;;;5.70;99.90;;;;;;5085071;28;20071;-84
2021/03/15 07:46:54;;;;;;;2.08;0.80;;;5.70;99.90;;;;;;5086629;28;20112;-84
2021/03/15 07:49:26;;;;;;;2.65;1.00;;;5.60;99.90;;;;;;5086370;28;20178;-83
2021/03/15 07:51:56;;;;;;;3.83;0.80;;;5.70;99.90;;;;;;5085401;28;20049;-84
2021/03/15 07:54:26;;;;;;;2.85;0.90;;;5.70;99.90;;;;;;5088683;28;20100;-84
2021/03/15 07:57:21;;;;;;;2.30;0.95;;;5.70;99.90;;;;;;5087391;28;20052;-84
2021/03/15 07:59:51;;;;;;;1.75;0.93;;;5.70;99.90;;;;;;5102283;28;20100;-85
2021/03/15 08:02:21;;;;;;;2.22;0.82;;;5.60;99.90;;;;;;5087204;28;20072;-85
2021/03/15 08:04:48;;;;;;;3.38;1.10;;;5.50;99.90;;;;;;5087276;28;20406;-83
2021/03/15 08:07:16;;;;;;;1.98;0.80;;;5.40;99.90;;;;;;5078994;28;20057;-84
2021/03/15 08:09:45;;;;;;;1.88;0.75;;;5.30;99.90;;;;;;5076103;28;20136;-83
2021/03/15 08:12:13;;;;;;;2.03;0.90;;;5.30;99.90;;;;;;5075868;28;20159;-83
2021/03/15 08:14:46;;;;;;;1.35;0.70;;;5.30;99.90;;;;;;5076166;28;20305;-82
2021/03/15 08:17:19;;;;;;;2.25;1.05;;;5.30;99.90;;;;;;5076224;28;20067;-83
2021/03/15 08:19:48;;;;;;;3.20;0.98;;;5.20;99.90;;;;;;5076420;28;20087;-84
2021/03/15 08:22:25;;;;;;;1.98;0.80;;;5.10;99.90;;;;;;5076025;28;20105;-82
2021/03/15 08:24:56;;;;;;;2.53;1.00;;;5.20;99.90;;;;;;5075552;28;20056;-83
2021/03/15 08:27:27;;;;;;;2.63;0.90;;;5.00;99.90;;;;;;5074634;28;20093;-83
2021/03/15 08:29:58;;;;;;;2.28;0.80;;;5.20;99.90;;;;;;5075593;28;20144;-83
2021/03/15 08:32:28;;;;;;;2.28;1.13;;;5.20;99.90;;;;;;5074827;28;20132;-83
2021/03/15 08:34:56;;;;;;;2.00;0.75;;;5.30;99.90;;;;;;5075424;28;20068;-83
2021/03/15 08:37:56;;;;;;;3.17;0.85;;;5.30;99.90;;;;;;5075913;28;20084;-83
2021/03/15 08:40:51;;;;;;;2.33;0.80;;;5.40;99.90;;;;;;5075029;28;20080;-83
2021/03/15 08:43:42;;;;;;;1.88;0.70;;;5.40;99.90;;;;;;5075016;28;20066;-83
2021/03/15 08:46:15;;;;;;;2.08;0.82;;;5.40;99.90;;;;;;5074724;28;20056;-83
2021/03/15 08:49:07;;;;;;;2.28;0.90;;;5.50;99.90;;;;;;5074764;28;20072;-82
2021/03/15 08:51:46;;;;;;;1.40;0.60;;;5.60;99.90;;;;;;5075052;28;20052;-82
2021/03/15 08:54:17;;;;;;;1.88;0.73;;;5.50;99.90;;;;;;5084540;28;20053;-82
2021/03/15 08:56:46;;;;;;;1.55;0.70;;;5.60;99.90;;;;;;5085316;28;20052;-83
2021/03/15 08:59:14;;;;;;;3.40;0.90;;;5.70;99.90;;;;;;5084264;28;20067;-83
2021/03/15 09:01:49;;;;;;;1.65;0.70;;;5.80;99.90;;;;;;5084087;28;20508;-84
2021/03/15 09:04:41;;;;;;;1.30;0.70;;;5.70;99.90;;;;;;5074287;28;20140;-85
2021/03/15 09:07:43;;;;;;;0.70;0.40;;;5.70;99.90;;;;;;5071183;28;20048;-85
2021/03/15 09:10:44;;;;;;;1.67;0.70;;;5.50;99.90;;;;;;5013125;28;20057;-84
2021/03/15 09:13:27;;;;;;;1.50;0.50;;;5.50;99.90;;;;;;5069879;28;20125;-83
2021/03/15 09:16:03;;;;;;;2.25;0.63;;;5.50;99.90;;;;;;5054140;28;20076;-84
2021/03/15 09:18:51;;;;;;;0.43;0.30;;;5.50;99.90;;;;;;5053955;28;20166;-84
2021/03/15 09:21:57;;;;;;;1.50;0.52;;;5.40;99.90;;;;;;5069636;28;20053;-84
2021/03/15 09:24:58;;;;;;;1.45;0.47;;;5.40;99.90;;;;;;5054101;28;20079;-84
2021/03/15 09:27:37;;;;;;;2.10;0.70;;;5.40;99.90;;;;;;5057195;28;20052;-84
2021/03/15 09:30:18;;;;;;;17.80;7.55;;;5.30;99.90;;;;;;5059002;28;20130;-83
2021/03/15 09:32:47;;;;;;;3.20;1.10;;;5.30;99.90;;;;;;5064298;28;20048;-83
2021/03/15 09:35:24;;;;;;;1.58;0.68;;;5.30;99.90;;;;;;5064235;28;20447;-82
2021/03/15 09:37:56;;;;;;;1.63;0.63;;;5.30;99.90;;;;;;5064755;28;20052;-83
2021/03/15 09:40:29;;;;;;;1.83;0.80;;;5.40;99.90;;;;;;5054670;28;20082;-85
2021/03/15 09:42:56;;;;;;;1.35;0.60;;;5.40;99.90;;;;;;5053743;28;20140;-83
2021/03/15 09:45:28;;;;;;;2.17;0.70;;;5.50;99.90;;;;;;5052508;28;20049;-83
2021/03/15 09:47:56;;;;;;;1.52;0.60;;;5.50;99.90;;;;;;5053622;28;20072;-83
2021/03/15 09:50:25;;;;;;;1.33;0.60;;;5.60;99.90;;;;;;5052691;28;20095;-82
2021/03/15 09:52:53;;;;;;;1.65;0.60;;;5.60;99.90;;;;;;5053399;28;20049;-83
2021/03/15 09:55:21;;;;;;;2.00;0.50;;;5.60;99.90;;;;;;5053281;28;20047;-82
2021/03/15 09:57:47;;;;;;;1.50;0.55;;;5.60;99.90;;;;;;5053353;28;20049;-82
2021/03/15 10:00:16;;;;;;;1.75;0.70;;;5.70;99.90;;;;;;5053109;28;20140;-80
2021/03/15 10:02:45;;;;;;;2.97;0.60;;;5.70;99.90;;;;;;5053662;28;20451;-81
2021/03/15 10:05:19;;;;;;;1.67;0.60;;;5.70;99.90;;;;;;5053118;28;20063;-82
2021/03/15 10:07:48;;;;;;;0.80;0.45;;;5.70;99.90;;;;;;5053610;28;20516;-83
2021/03/15 10:10:19;;;;;;;2.55;0.70;;;5.80;99.90;;;;;;5053023;28;20048;-81
2021/03/15 10:12:48;;;;;;;1.77;0.70;;;5.80;99.90;;;;;;5052914;28;20068;-82
2021/03/15 10:15:17;;;;;;;1.70;0.75;;;6.00;99.90;;;;;;5053277;28;20454;-80
2021/03/15 10:17:45;;;;;;;1.08;0.50;;;6.00;99.90;;;;;;5053189;28;20135;-81
2021/03/15 10:20:24;;;;;;;2.10;0.63;;;6.10;99.90;;;;;;5052952;28;20113;-80
2021/03/15 10:22:51;;;;;;;2.30;0.80;;;6.10;99.90;;;;;;5052845;28;20072;-81
2021/03/15 10:25:19;;;;;;;1.88;0.70;;;6.20;99.90;;;;;;5052772;28;20128;-81
2021/03/15 10:27:57;;;;;;;1.55;0.60;;;6.30;99.90;;;;;;5052957;28;20132;-80
2021/03/15 10:30:30;;;;;;;1.90;0.70;;;6.40;99.90;;;;;;5052799;28;20048;-79
2021/03/15 10:32:58;;;;;;;0.70;0.40;;;6.30;99.90;;;;;;5053142;28;20512;-80
2021/03/15 10:35:27;;;;;;;1.15;0.50;;;6.50;99.90;;;;;;5052977;28;20517;-79
2021/03/15 10:37:58;;;;;;;1.65;0.70;;;6.50;99.90;;;;;;5052927;28;20056;-80
2021/03/15 10:40:26;;;;;;;1.08;0.50;;;6.60;99.90;;;;;;5068344;28;20061;-80
2021/03/15 10:42:54;;;;;;;1.77;0.70;;;6.60;99.90;;;;;;5053160;28;20049;-81
2021/03/15 10:45:23;;;;;;;1.77;0.77;;;6.50;99.90;;;;;;5055450;28;20069;-81
2021/03/15 10:47:50;;;;;;;1.52;0.60;;;6.50;99.90;;;;;;5063119;28;20084;-80
2021/03/15 10:50:29;;;;;;;1.60;0.70;;;6.50;99.90;;;;;;5063220;28;20077;-81
2021/03/15 10:52:58;;;;;;;1.20;0.50;;;6.50;99.90;;;;;;5062481;28;20068;-81
2021/03/15 10:55:32;;;;;;;1.83;0.63;;;6.50;99.90;;;;;;5065474;28;20422;-80
2021/03/15 10:58:05;;;;;;;1.42;0.70;;;6.60;99.90;;;;;;5057070;28;20055;-80
2021/03/15 11:00:34;;;;;;;1.88;0.80;;;6.50;99.90;;;;;;5057127;28;20170;-80
2021/03/15 11:03:01;;;;;;;1.63;0.75;;;6.50;99.90;;;;;;5056549;28;20049;-81
2021/03/15 11:05:28;;;;;;;1.92;0.80;;;6.50;99.90;;;;;;5056467;28;20136;-81
2021/03/15 11:07:56;;;;;;;2.20;1.00;;;6.40;99.90;;;;;;5056250;28;20045;-81
2021/03/15 11:10:27;;;;;;;2.20;0.80;;;6.40;99.90;;;;;;5056210;28;20124;-80
2021/03/15 11:12:56;;;;;;;2.08;0.90;;;6.40;99.90;;;;;;5056321;28;20141;-80
2021/03/15 11:15:32;;;;;;;2.90;1.13;;;6.50;99.90;;;;;;5069838;28;20132;-81
2021/03/15 11:18:07;;;;;;;1.90;0.80;;;6.60;99.90;;;;;;5071645;28;20080;-81
2021/03/15 11:20:36;;;;;;;;;;;6.40;99.90;;;;;;5074015;28;20111;-82
2021/03/15 11:23:03;;;;;;;1.70;0.70;;;6.50;99.90;;;;;;5073386;28;20021;-81
2021/03/15 11:25:32;;;;;;;2.53;0.80;;;6.60;99.90;;;;;;5073261;28;20110;-81
2021/03/15 11:28:14;;;;;;;2.72;0.90;;;6.60;99.90;;;;;;5105941;28;20049;-82
2021/03/15 11:30:41;;;;;;;3.28;1.33;;;6.60;99.90;;;;;;5073222;28;20131;-82
2021/03/15 11:33:11;;;;;;;2.58;0.90;;;6.60;99.90;;;;;;5073030;28;20120;-82
2021/03/15 11:35:39;;;;;;;1.60;0.68;;;6.60;99.90;;;;;;5073520;28;20049;-82
2021/03/15 11:38:06;;;;;;;1.90;0.90;;;6.70;99.90;;;;;;5073724;28;20402;-81
2021/03/15 11:40:38;;;;;;;1.50;0.70;;;6.70;99.90;;;;;;5073001;28;20063;-81
2021/03/15 11:43:07;;;;;;;2.30;0.80;;;6.80;99.90;;;;;;5072500;28;20045;-83
2021/03/15 11:45:34;;;;;;;1.90;0.73;;;6.80;99.90;;;;;;5072712;28;20083;-81
2021/03/15 11:48:02;;;;;;;2.05;0.80;;;7.00;99.90;;;;;;5073354;28;20040;-82
2021/03/15 11:50:30;;;;;;;1.80;0.80;;;6.90;99.90;;;;;;5073303;28;20052;-81
2021/03/15 11:52:57;;;;;;;2.00;0.90;;;6.90;99.90;;;;;;5072989;28;20063;-81
2021/03/15 11:55:23;;;;;;;2.38;0.93;;;6.90;99.90;;;;;;5072363;28;20513;-80
2021/03/15 11:57:52;;;;;;;2.50;1.08;;;6.90;99.90;;;;;;5072677;28;20068;-82
2021/03/15 12:00:21;;;;;;;2.10;0.93;;;6.80;99.90;;;;;;5053014;28;20083;-82
2021/03/15 12:02:52;;;;;;;2.08;0.80;;;7.10;99.90;;;;;;5053010;28;20073;-82
2021/03/15 12:05:20;;;;;;;1.88;0.90;;;7.30;99.90;;;;;;5068107;28;20057;-84
2021/03/15 12:07:47;;;;;;;2.33;0.90;;;7.40;99.90;;;;;;5052334;28;20384;-83
2021/03/15 12:10:15;;;;;;;4.20;1.00;;;7.50;99.90;;;;;;5068069;28;20060;-83
2021/03/15 12:12:43;;;;;;;2.25;0.95;;;7.60;99.90;;;;;;5054829;28;20136;-83
2021/03/15 12:15:14;;;;;;;2.90;1.40;;;7.60;99.90;;;;;;5051967;28;20049;-84
2021/03/15 12:17:44;;;;;;;2.40;1.20;;;7.70;99.90;;;;;;5052173;28;20068;-82
2021/03/15 12:20:11;;;;;;;2.90;1.48;;;7.60;99.90;;;;;;5053143;28;20052;-84
2021/03/15 12:22:38;;;;;;;3.47;1.30;;;7.50;99.90;;;;;;5052814;28;20076;-83
2021/03/15 12:25:08;;;;;;;2.25;1.02;;;7.40;99.90;;;;;;5052097;28;20626;-77
2021/03/15 12:27:34;;;;;;;2.83;1.20;;;7.50;99.90;;;;;;5053830;28;20056;-80
2021/03/15 12:30:01;;;;;;;2.67;1.40;;;7.60;98.70;;;;;;5071141;28;20537;-79
2021/03/15 12:32:29;;;;;;;2.78;1.42;;;7.60;98.50;;;;;;5071822;28;20049;-79
2021/03/15 12:34:56;;;;;;;3.10;1.38;;;7.60;99.00;;;;;;5071502;28;20056;-79
2021/03/15 12:37:23;;;;;;;3.03;1.20;;;7.60;98.40;;;;;;5071498;28;20051;-79
2021/03/15 12:39:51;;;;;;;2.50;1.05;;;7.70;98.50;;;;;;5071452;28;20135;-79
2021/03/15 12:42:19;;;;;;;2.53;1.20;;;7.80;97.90;;;;;;5071732;28;20127;-79
2021/03/15 12:44:47;;;;;;;3.28;1.48;;;7.80;98.80;;;;;;5071728;28;20084;-80
2021/03/15 12:47:14;;;;;;;3.13;1.33;;;8.00;98.70;;;;;;5070959;28;20056;-79
2021/03/15 12:49:42;;;;;;;2.08;1.20;;;8.30;98.00;;;;;;5071442;28;20076;-79
2021/03/15 12:52:09;;;;;;;2.78;1.30;;;8.50;98.10;;;;;;5071952;28;20068;-79
2021/03/15 12:54:36;;;;;;;2.45;1.27;;;8.50;97.00;;;;;;5071422;28;20091;-80
2021/03/15 12:57:03;;;;;;;2.72;1.33;;;8.50;96.30;;;;;;5071099;28;20123;-79
2021/03/15 12:59:31;;;;;;;2.90;1.40;;;8.50;96.30;;;;;;5070840;28;20403;-80
2021/03/15 13:01:57;;;;;;;2.65;1.50;;;8.40;96.00;;;;;;5070605;28;20072;-79
2021/03/15 13:04:24;;;;;;;2.83;1.50;;;8.40;96.80;;;;;;5071221;28;20401;-80
2021/03/15 13:06:52;;;;;;;2.42;1.20;;;8.40;95.30;;;;;;5071199;28;20506;-79
2021/03/15 13:09:19;;;;;;;3.05;1.30;;;8.50;95.30;;;;;;5071243;28;20511;-79
2021/03/15 13:11:45;;;;;;;3.15;1.27;;;8.50;95.70;;;;;;5071870;28;20084;-79
2021/03/15 13:14:12;;;;;;;2.72;1.40;;;8.60;95.40;;;;;;5070825;28;20056;-80
2021/03/15 13:16:39;;;;;;;2.50;1.30;;;8.80;94.80;;;;;;5071096;28;20057;-80
2021/03/15 13:19:06;;;;;;;3.28;1.20;;;9.10;93.30;;;;;;5070647;28;20055;-80
2021/03/15 13:21:33;;;;;;;2.28;1.20;;;9.30;93.40;;;;;;5071149;28;20431;-79